Time;durP1;ratioP1;P1;durP2;ratioP2;P2;SDS_P1;SDS_P2;PMS_P1;PMS_P2;Temp;Humidity;BMP_temperature;BMP_pressure;BME280_temperature;BME280_humidity;BME280_pressure;Samples;Min_cycle;Max_cycle;Signal;HPM_P1;HPM_P2
2022/08/23 00:02:02;;;;;;;25.45;10.78;;;;;;;20.82;100.00;98554.58;2201255;80;21041;-58
2022/08/23 00:05:03;;;;;;;24.07;9.93;;;;;;;20.84;100.00;98554.41;2202251;80;21544;-58
2022/08/23 00:08:03;;;;;;;24.05;10.03;;;;;;;20.79;100.00;98543.40;2199557;80;21052;-61
2022/08/23 00:11:04;;;;;;;24.92;9.93;;;;;;;20.71;100.00;98545.06;2205649;80;21006;-59
2022/08/23 00:14:04;;;;;;;26.73;9.40;;;;;;;20.59;100.00;98551.70;2197861;81;20970;-58
2022/08/23 00:17:05;;;;;;;22.90;9.25;;;;;;;20.55;100.00;98547.69;2203807;80;21054;-59
2022/08/23 00:20:06;;;;;;;24.18;8.95;;;;;;;20.49;100.00;98558.50;2204190;80;20955;-59
2022/08/23 00:23:06;;;;;;;23.90;9.23;;;;;;;20.40;100.00;98562.13;2244810;78;21047;-58
2022/08/23 00:26:07;;;;;;;22.75;9.33;;;;;;;20.36;100.00;98560.30;2206364;80;20960;-59
2022/08/23 00:29:07;;;;;;;22.93;8.85;;;;;;;20.29;100.00;98555.30;2243503;78;21054;-58
2022/08/23 00:32:07;;;;;;;24.72;10.03;;;;;;;20.27;100.00;98563.95;2241438;79;20930;-59
2022/08/23 00:35:08;;;;;;;25.90;9.80;;;;;;;20.28;100.00;98560.78;2232114;78;20977;-59
2022/08/23 00:38:09;;;;;;;25.97;9.80;;;;;;;20.27;100.00;98546.64;2241220;78;21105;-59
2022/08/23 00:41:09;;;;;;;23.32;9.43;;;;;;;20.21;100.00;98557.92;2237221;79;20954;-59
2022/08/23 00:50:14;;;;;;;23.62;9.58;;;;;;;20.34;100.00;98534.83;2204483;78;20994;-59
2022/08/23 00:53:15;;;;;;;23.00;9.28;;;;;;;20.33;100.00;98521.16;2245856;78;20947;-59
2022/08/23 00:56:16;;;;;;;23.87;9.53;;;;;;;20.32;100.00;98520.85;2243592;78;20958;-58
2022/08/23 00:59:16;;;;;;;22.00;9.47;;;;;;;20.33;100.00;98515.36;2234288;78;21117;-58
2022/08/23 01:02:17;;;;;;;23.90;10.25;;;;;;;20.35;100.00;98510.69;2238449;77;21065;-58
2022/08/23 01:05:18;;;;;;;23.50;9.98;;;;;;;20.34;100.00;98513.52;2238705;79;21041;-58
2022/08/23 01:08:18;;;;;;;24.57;9.90;;;;;;;20.31;100.00;98517.34;2221009;78;21556;-58
2022/08/23 01:11:20;;;;;;;23.20;9.63;;;;;;;20.27;100.00;98516.50;2235364;79;21532;-58
2022/08/23 01:14:21;;;;;;;25.00;10.68;;;;;;;20.14;100.00;98519.62;2240146;79;21057;-58
2022/08/23 01:17:21;;;;;;;25.92;9.58;;;;;;;20.08;100.00;98517.97;2241774;78;21033;-61
2022/08/23 01:20:23;;;;;;;26.62;11.03;;;;;;;19.98;100.00;98524.41;2245246;78;20993;-61
2022/08/23 01:23:24;;;;;;;23.92;10.10;;;;;;;19.94;100.00;98521.73;2234164;78;21544;-61
2022/08/23 01:26:25;;;;;;;27.87;11.10;;;;;;;19.85;100.00;98528.34;2242385;79;20974;-60
2022/08/23 01:29:25;;;;;;;23.35;9.75;;;;;;;19.88;100.00;98517.41;2237576;79;21026;-59
2022/08/23 01:32:26;;;;;;;24.50;10.03;;;;;;;20.04;100.00;98519.77;2240094;78;21512;-60
2022/08/23 01:35:26;;;;;;;23.70;10.08;;;;;;;19.99;100.00;98528.23;2238521;79;20985;-59
2022/08/23 01:38:27;;;;;;;23.77;9.90;;;;;;;20.00;100.00;98521.93;2240995;79;21001;-60
2022/08/23 01:41:27;;;;;;;26.95;9.83;;;;;;;20.00;100.00;98521.11;2238995;78;20990;-61
2022/08/23 01:44:27;;;;;;;25.95;10.48;;;;;;;20.04;100.00;98515.77;2243774;78;20994;-59
2022/08/23 01:47:28;;;;;;;24.12;9.98;;;;;;;19.97;100.00;98518.74;2241470;78;21025;-58
2022/08/23 01:50:29;;;;;;;23.73;9.35;;;;;;;20.03;100.00;98516.78;2239192;79;21018;-59
2022/08/23 01:53:29;;;;;;;22.35;8.88;;;;;;;19.94;100.00;98517.73;2250088;78;21036;-61
2022/08/23 01:56:30;;;;;;;25.75;10.48;;;;;;;19.95;100.00;98515.42;2242774;78;21093;-59
2022/08/23 01:59:30;;;;;;;24.63;9.93;;;;;;;19.86;100.00;98518.55;2245662;78;20989;-60
2022/08/23 02:02:31;;;;;;;22.27;10.13;;;;;;;19.85;100.00;98511.55;2242224;78;21077;-58
2022/08/23 02:05:31;;;;;;;27.32;10.65;;;;;;;19.84;100.00;98513.88;2236148;78;21029;-59
2022/08/23 02:11:34;;;;;;;27.58;10.72;;;;;;;19.83;100.00;98521.03;2208203;79;20966;-60
2022/08/23 02:14:36;;;;;;;28.07;10.78;;;;;;;19.86;100.00;98512.72;2240099;78;21541;-59
2022/08/23 02:17:37;;;;;;;29.37;11.43;;;;;;;19.86;100.00;98514.05;2240949;79;21020;-58
2022/08/23 02:20:39;;;;;;;28.98;11.48;;;;;;;19.85;100.00;98516.37;2240274;79;21090;-58
2022/08/23 02:23:39;;;;;;;;;;;;;;;19.76;100.00;98518.64;2242581;79;21028;-58
2022/08/23 02:26:40;;;;;;;26.75;10.72;;;;;;;19.78;100.00;98519.30;2241867;79;20133;-58
2022/08/23 02:29:40;;;;;;;25.05;10.40;;;;;;;19.74;100.00;98518.80;2243559;79;20983;-59
2022/08/23 02:32:41;;;;;;;24.60;10.68;;;;;;;19.71;100.00;98513.81;2241685;78;21008;-59
2022/08/23 02:35:41;;;;;;;29.45;11.60;;;;;;;19.57;100.00;98510.42;2240257;78;21531;-58
2022/08/23 02:38:42;;;;;;;30.20;11.70;;;;;;;19.57;100.00;98517.06;2246318;78;21499;-58
2022/08/23 02:41:43;;;;;;;26.60;11.00;;;;;;;19.59;100.00;98515.07;2240147;78;21028;-58
2022/08/23 02:44:43;;;;;;;30.20;12.15;;;;;;;19.61;100.00;98513.58;2238360;79;21017;-59
2022/08/23 02:47:45;;;;;;;26.48;11.25;;;;;;;19.45;100.00;98503.69;2241566;78;21044;-58
2022/08/23 02:50:45;;;;;;;25.87;12.70;;;;;;;19.55;100.00;98503.93;2237599;79;21128;-58
2022/08/23 02:53:46;;;;;;;26.17;12.15;;;;;;;19.56;100.00;98495.44;2247740;78;21804;-58
2022/08/23 02:56:47;;;;;;;26.70;11.88;;;;;;;19.51;100.00;98496.41;2245749;78;21143;-58
2022/08/23 02:59:49;;;;;;;28.37;12.87;;;;;;;19.45;100.00;98501.03;2240352;78;21025;-58
2022/08/23 03:02:49;;;;;;;29.50;12.37;;;;;;;19.39;100.00;98509.14;2241924;78;21588;-58
2022/08/23 03:05:50;;;;;;;32.23;13.18;;;;;;;19.43;100.00;98508.34;2245436;78;20958;-58
2022/08/23 03:08:51;;;;;;;30.55;12.55;;;;;;;19.51;100.00;98503.91;2240667;78;21009;-58
2022/08/23 03:11:51;;;;;;;26.65;12.03;;;;;;;19.48;100.00;98500.71;2241634;78;21000;-58
2022/08/23 03:14:51;;;;;;;27.50;11.83;;;;;;;19.54;100.00;98499.59;2241540;78;20978;-58
2022/08/23 03:17:52;;;;;;;27.82;12.65;;;;;;;19.67;100.00;98508.47;2228820;78;21115;-59
2022/08/23 03:20:52;;;;;;;28.62;11.63;;;;;;;19.70;100.00;98517.96;2225288;78;20986;-59
2022/08/23 03:23:53;;;;;;;25.43;11.75;;;;;;;19.63;100.00;98520.92;2239576;79;21477;-58
2022/08/23 03:26:53;;;;;;;24.65;11.12;;;;;;;19.68;100.00;98531.42;2239495;78;21006;-58
2022/08/23 03:29:54;;;;;;;30.45;12.00;;;;;;;19.69;100.00;98534.91;2243272;78;21008;-60
2022/08/23 03:32:54;;;;;;;30.23;12.05;;;;;;;19.69;100.00;98537.06;2232872;79;20982;-59
2022/08/23 03:35:55;;;;;;;24.02;11.93;;;;;;;19.73;100.00;98530.43;2225954;78;21013;-59
2022/08/23 03:38:55;;;;;;;26.68;12.43;;;;;;;19.69;100.00;98538.39;2244485;78;21014;-58
2022/08/23 03:41:56;;;;;;;25.62;11.45;;;;;;;19.81;100.00;98540.80;2234565;78;21527;-61
2022/08/23 03:44:57;;;;;;;28.98;12.25;;;;;;;19.74;100.00;98535.27;2233676;79;21029;-60
2022/08/23 03:47:57;;;;;;;28.15;11.20;;;;;;;19.80;100.00;98532.51;2242399;78;21099;-60
2022/08/23 03:50:59;;;;;;;25.82;12.07;;;;;;;19.82;100.00;98527.34;2241228;78;20993;-59
2022/08/23 03:53:59;;;;;;;26.73;11.97;;;;;;;19.82;100.00;98545.14;2240592;78;21004;-59
2022/08/23 03:57:01;;;;;;;26.90;12.13;;;;;;;19.74;100.00;98544.59;2240736;79;21037;-59
2022/08/23 04:00:02;;;;;;;32.03;12.30;;;;;;;19.69;100.00;98555.69;2242977;78;21009;-60
2022/08/23 04:03:03;;;;;;;26.85;11.70;;;;;;;19.73;100.00;98558.88;2242423;79;21449;-59
2022/08/23 04:06:03;;;;;;;29.07;12.30;;;;;;;19.76;100.00;98555.89;2243397;78;21011;-58
2022/08/23 04:09:05;;;;;;;27.23;12.37;;;;;;;19.90;100.00;98563.81;2243438;78;21512;-61
2022/08/23 04:12:07;;;;;;;27.75;12.60;;;;;;;20.15;100.00;98563.91;2230282;78;21032;-61
2022/08/23 04:15:08;;;;;;;28.80;12.03;;;;;;;20.26;100.00;98567.61;2214399;78;20988;-60
2022/08/23 04:18:09;;;;;;;25.55;11.68;;;;;;;20.31;100.00;98570.59;2240747;78;21021;-59
2022/08/23 04:21:10;;;;;;;29.63;11.75;;;;;;;20.33;100.00;98577.09;2242816;78;20997;-58
2022/08/23 04:24:10;;;;;;;28.27;12.40;;;;;;;20.49;100.00;98572.33;2242025;78;21577;-58
2022/08/23 04:27:11;;;;;;;27.05;11.73;;;;;;;20.50;100.00;98566.84;2239769;79;21508;-60
2022/08/23 04:30:12;;;;;;;27.48;11.90;;;;;;;20.57;100.00;98563.00;2240980;79;21077;-59
2022/08/23 04:33:13;;;;;;;29.25;12.37;;;;;;;20.71;100.00;98558.38;2243329;78;21013;-59
2022/08/23 04:36:13;;;;;;;25.10;11.65;;;;;;;20.99;100.00;98565.23;2242673;78;21072;-58
2022/08/23 04:39:14;;;;;;;30.37;12.98;;;;;;;20.96;100.00;98570.42;2233504;78;21131;-58
2022/08/23 04:45:17;;;;;;;28.67;12.68;;;;;;;21.15;100.00;98573.23;2208819;79;21025;-58
2022/08/23 04:48:17;;;;;;;25.50;11.65;;;;;;;21.25;100.00;98577.89;2242020;78;21046;-59
2022/08/23 04:51:18;;;;;;;30.62;11.88;;;;;;;21.31;100.00;98570.23;2243257;78;21508;-58
2022/08/23 04:54:19;;;;;;;29.10;12.45;;;;;;;21.39;100.00;98572.39;2243333;78;21037;-61
2022/08/23 04:57:19;;;;;;;28.65;13.25;;;;;;;21.37;100.00;98577.55;2244325;78;20985;-61
2022/08/23 05:00:19;;;;;;;31.23;13.08;;;;;;;21.46;100.00;98580.52;2241124;78;20993;-59
2022/08/23 05:03:20;;;;;;;27.00;13.22;;;;;;;21.57;100.00;98580.72;2239316;78;21006;-61
2022/08/23 05:06:21;;;;;;;30.27;13.25;;;;;;;21.60;100.00;98583.86;2231360;79;21587;-62
2022/08/23 05:09:23;;;;;;;31.62;14.70;;;;;;;21.70;100.00;98581.52;2247768;78;21000;-59
2022/08/23 05:12:24;;;;;;;33.45;13.98;;;;;;;21.73;100.00;98591.84;2222410;78;21002;-58
2022/08/23 05:15:24;;;;;;;30.23;15.47;;;;;;;21.73;100.00;98591.84;2242476;78;21013;-58
2022/08/23 05:18:25;;;;;;;30.57;14.77;;;;;;;21.76;100.00;98597.66;2240539;78;20958;-60
2022/08/23 05:21:26;;;;;;;30.50;15.45;;;;;;;21.59;100.00;98600.90;2242629;78;21479;-59
2022/08/23 05:24:26;;;;;;;27.20;14.47;;;;;;;21.47;100.00;98614.22;2238128;79;20973;-60
2022/08/23 05:27:27;;;;;;;28.73;14.98;;;;;;;21.44;100.00;98618.05;2238062;79;20993;-58
2022/08/23 05:30:27;;;;;;;31.30;15.40;;;;;;;21.36;100.00;98615.89;2241627;78;21036;-58
2022/08/23 05:33:29;;;;;;;29.95;14.63;;;;;;;21.29;100.00;98619.23;2242725;78;21190;-59
2022/08/23 05:36:29;;;;;;;27.50;14.25;;;;;;;21.38;100.00;98621.91;2228560;79;21620;-58
2022/08/23 05:39:30;;;;;;;29.10;14.87;;;;;;;21.48;100.00;98625.22;2242123;78;21013;-58
2022/08/23 05:42:30;;;;;;;32.05;15.40;;;;;;;21.42;100.00;98629.40;2242815;78;21111;-58
2022/08/23 05:45:31;;;;;;;35.15;14.80;;;;;;;21.41;100.00;98634.39;2241572;78;21083;-61
2022/08/23 05:48:32;;;;;;;28.62;13.95;;;;;;;21.42;100.00;98632.06;2243888;78;21017;-59
2022/08/23 05:51:32;;;;;;;32.20;13.97;;;;;;;21.49;100.00;98634.05;2240325;78;21473;-59
2022/08/23 05:54:33;;;;;;;34.58;15.20;;;;;;;21.67;100.00;98637.91;2240817;78;20989;-59
2022/08/23 05:57:34;;;;;;;28.05;13.48;;;;;;;21.75;100.00;98641.39;2244740;78;21126;-59
2022/08/23 06:00:34;;;;;;;28.98;12.68;;;;;;;21.76;100.00;98640.37;2233499;78;21025;-61
2022/08/23 06:03:35;;;;;;;28.67;12.33;;;;;;;21.84;100.00;98642.20;2244220;78;20999;-60
2022/08/23 06:06:36;;;;;;;26.40;12.10;;;;;;;21.89;100.00;98640.35;2241967;78;21025;-61
2022/08/23 06:09:36;;;;;;;29.37;12.97;;;;;;;21.97;100.00;98637.16;2239805;78;20962;-59
2022/08/23 06:12:37;;;;;;;26.73;12.63;;;;;;;22.07;100.00;98640.15;2236299;78;21041;-60
2022/08/23 06:15:37;;;;;;;26.60;12.70;;;;;;;22.20;100.00;98649.77;2243138;78;21472;-60
2022/08/23 06:18:37;;;;;;;31.20;13.28;;;;;;;22.44;100.00;98651.55;2238556;79;21526;-60
2022/08/23 06:21:38;;;;;;;27.90;12.15;;;;;;;22.66;100.00;98648.58;2242836;78;21025;-59
2022/08/23 06:24:38;;;;;;;24.80;11.60;;;;;;;22.97;100.00;98645.55;2231535;78;21032;-61
2022/08/23 06:27:39;;;;;;;26.35;11.45;;;;;;;23.18;100.00;98648.95;2248280;78;21086;-60
2022/08/23 06:30:40;;;;;;;25.80;12.80;;;;;;;23.16;100.00;98643.78;2236819;79;20990;-60
2022/08/23 06:33:40;;;;;;;27.13;12.15;;;;;;;23.13;100.00;98647.30;2242243;78;20938;-61
2022/08/23 06:36:41;;;;;;;27.60;11.57;;;;;;;23.19;100.00;98649.28;2243721;78;21636;-61
2022/08/23 06:39:41;;;;;;;27.77;12.00;;;;;;;23.31;100.00;98655.86;2244801;78;21653;-59
2022/08/23 06:42:43;;;;;;;27.63;11.87;;;;;;;23.34;100.00;98646.13;2243892;78;21057;-58
2022/08/23 06:45:43;;;;;;;27.75;11.73;;;;;;;23.40;100.00;98652.60;2239342;78;21264;-58
2022/08/23 06:48:44;;;;;;;32.07;11.67;;;;;;;23.32;100.00;98653.52;2238998;79;21051;-59
2022/08/23 06:51:45;;;;;;;26.17;10.87;;;;;;;23.34;100.00;98654.67;2241034;78;21033;-60
2022/08/23 06:54:46;;;;;;;26.07;11.20;;;;;;;23.35;100.00;98659.84;2241230;78;21465;-59
2022/08/23 06:57:46;;;;;;;28.80;11.03;;;;;;;23.41;100.00;98661.48;2236462;78;21578;-59
2022/08/23 07:00:46;;;;;;;23.33;10.77;;;;;;;23.44;100.00;98664.62;2246670;78;20958;-59
2022/08/23 07:03:48;;;;;;;28.40;11.17;;;;;;;23.65;100.00;98664.45;2244099;78;20954;-59
2022/08/23 07:06:48;;;;;;;25.08;10.65;;;;;;;23.80;100.00;98665.28;2241931;78;21005;-58
2022/08/23 07:09:49;;;;;;;24.80;10.23;;;;;;;23.92;100.00;98660.37;2242604;78;21468;-61
2022/08/23 07:12:50;;;;;;;27.67;11.27;;;;;;;23.92;100.00;98656.34;2242155;79;20992;-59
2022/08/23 07:15:50;;;;;;;26.43;11.30;;;;;;;24.18;100.00;98665.78;2238141;79;21036;-59
2022/08/23 07:18:54;;;;;;;26.50;9.20;;;;;;;24.31;100.00;98667.28;2246931;78;21009;-59
2022/08/23 07:21:53;;;;;;;22.93;9.83;;;;;;;24.42;100.00;98668.64;2223895;79;21500;-60
2022/08/23 07:24:54;;;;;;;23.67;10.07;;;;;;;24.65;100.00;98667.72;2240777;78;21070;-60
2022/08/23 07:27:55;;;;;;;27.57;11.20;;;;;;;24.88;100.00;98671.09;2242734;78;21128;-60
2022/08/23 07:30:55;;;;;;;26.77;9.67;;;;;;;25.01;100.00;98668.22;2242136;78;20958;-60
2022/08/23 07:33:56;;;;;;;26.20;9.83;;;;;;;24.99;100.00;98673.78;2235139;78;21473;-59
2022/08/23 07:36:57;;;;;;;27.25;9.78;;;;;;;25.10;100.00;98681.00;2241259;78;21069;-58
2022/08/23 07:39:57;;;;;;;24.90;10.03;;;;;;;25.19;100.00;98673.98;2240979;78;20973;-59
2022/08/23 07:42:58;;;;;;;27.33;9.27;;;;;;;25.31;100.00;98675.66;2243308;78;20996;-59
2022/08/23 07:45:59;;;;;;;23.53;10.07;;;;;;;25.46;100.00;98668.89;2234688;79;21093;-61
2022/08/23 07:48:59;;;;;;;23.10;9.73;;;;;;;25.50;100.00;98680.06;2245669;78;21539;-59
2022/08/23 07:52:00;;;;;;;23.67;9.75;;;;;;;25.62;100.00;98680.39;2234517;79;21543;-59
2022/08/23 07:55:02;;;;;;;23.92;9.65;;;;;;;25.72;100.00;98687.06;2246785;78;21036;-60
2022/08/23 07:58:02;;;;;;;23.10;9.80;;;;;;;25.94;100.00;98687.83;2197088;80;21057;-60
2022/08/23 08:01:03;;;;;;;25.50;9.85;;;;;;;26.08;100.00;98687.97;2241086;79;21095;-59
2022/08/23 08:04:04;;;;;;;25.60;10.37;;;;;;;26.10;100.00;98696.66;2241249;79;21028;-60
2022/08/23 08:07:04;;;;;;;25.00;9.40;;;;;;;25.98;100.00;98690.16;2241384;78;21032;-60
2022/08/23 08:10:04;;;;;;;23.70;9.73;;;;;;;25.96;100.00;98694.88;2245948;78;20973;-60
2022/08/23 08:13:05;;;;;;;23.52;9.80;;;;;;;26.06;100.00;98701.61;2243501;78;21013;-60
2022/08/23 08:16:07;;;;;;;26.97;9.53;;;;;;;26.26;100.00;98702.22;2235037;78;21020;-60
2022/08/23 08:19:08;;;;;;;;;;;;;;;26.34;100.00;98706.10;2244327;78;20977;-60
2022/08/23 08:22:08;;;;;;;26.87;10.13;;;;;;;26.48;100.00;98705.66;2241536;78;20101;-59
2022/08/23 08:25:08;;;;;;;24.80;10.20;;;;;;;26.47;100.00;98708.55;2242185;79;21676;-59
2022/08/23 08:28:09;;;;;;;25.33;9.33;;;;;;;26.51;100.00;98709.82;2241968;78;20966;-61
2022/08/23 08:31:09;;;;;;;26.37;10.07;;;;;;;26.62;100.00;98722.17;2244458;78;20985;-60
2022/08/23 08:34:10;;;;;;;24.07;9.10;;;;;;;26.85;100.00;98718.88;2244079;78;21032;-59
2022/08/23 08:37:11;;;;;;;26.57;9.57;;;;;;;26.94;100.00;98720.37;2240274;78;20993;-59
2022/08/23 08:40:12;;;;;;;23.30;9.87;;;;;;;26.89;100.00;98724.16;2243387;78;20994;-61
2022/08/23 08:43:12;;;;;;;28.17;9.37;;;;;;;26.84;100.00;98722.58;2242336;78;21524;-59
2022/08/23 08:46:12;;;;;;;24.03;9.77;;;;;;;27.27;100.00;98715.05;2243350;78;21016;-60
2022/08/23 08:49:13;;;;;;;25.77;9.50;;;;;;;27.51;100.00;98712.00;2238563;79;21056;-59
2022/08/23 08:52:14;;;;;;;25.45;9.28;;;;;;;27.80;100.00;98702.17;2243231;78;21025;-59
2022/08/23 08:55:15;;;;;;;25.17;9.83;;;;;;;27.75;100.00;98707.34;2239433;79;21106;-59
2022/08/23 08:58:16;;;;;;;29.07;10.33;;;;;;;27.21;100.00;98711.84;2243902;78;21041;-59
2022/08/23 09:01:16;;;;;;;23.38;9.48;;;;;;;27.34;100.00;98712.41;2242089;78;21537;-60
2022/08/23 09:04:17;;;;;;;24.27;9.60;;;;;;;28.05;100.00;98715.55;2242605;78;21128;-59
2022/08/23 09:07:17;;;;;;;24.20;10.10;;;;;;;28.42;100.00;98713.20;2240556;78;21090;-59
2022/08/23 09:10:18;;;;;;;27.40;10.27;;;;;;;28.47;100.00;98720.11;2246630;78;21017;-59
2022/08/23 09:13:18;;;;;;;24.63;9.87;;;;;;;28.67;100.00;98718.19;2244040;78;21021;-59
2022/08/23 09:16:19;;;;;;;23.50;9.70;;;;;;;29.01;100.00;98723.45;2238969;78;21163;-60
2022/08/23 09:19:19;;;;;;;23.13;9.90;;;;;;;28.91;100.00;98726.61;2236147;78;21484;-59
2022/08/23 09:22:20;;;;;;;25.13;10.03;;;;;;;28.94;100.00;98726.71;2242314;78;21013;-59
2022/08/23 09:25:20;;;;;;;28.27;10.47;;;;;;;28.91;100.00;98727.96;2242473;78;21035;-59
2022/08/23 09:28:21;;;;;;;27.35;11.08;;;;;;;29.04;100.00;98729.77;2243543;78;21010;-59
2022/08/23 09:31:22;;;;;;;26.83;10.90;;;;;;;29.04;100.00;98729.77;2239724;79;20990;-59
2022/08/23 09:34:22;;;;;;;27.47;10.60;;;;;;;29.33;100.00;98731.06;2247562;78;21127;-59
2022/08/23 09:37:23;;;;;;;26.07;12.45;;;;;;;29.81;100.00;98729.69;2232663;78;21488;-59
2022/08/23 09:40:24;;;;;;;29.23;12.58;;;;;;;29.69;100.00;98732.26;2242934;78;21056;-59
2022/08/23 09:43:25;;;;;;;26.30;12.27;;;;;;;29.62;100.00;98734.19;2245015;78;21052;-59
2022/08/23 09:46:27;;;;;;;26.75;14.00;;;;;;;29.76;100.00;98732.75;2241822;78;21007;-59
2022/08/23 09:49:28;;;;;;;24.70;12.90;;;;;;;30.20;100.00;98734.45;2241565;78;21046;-59
2022/08/23 09:52:31;;;;;;;28.23;13.65;;;;;;;30.39;100.00;98737.98;2231743;79;21072;-59
2022/08/23 09:55:31;;;;;;;28.80;13.10;;;;;;;30.56;100.00;98735.55;2245355;78;21651;-59
2022/08/23 09:58:32;;;;;;;26.65;11.93;;;;;;;30.75;100.00;98737.70;2239195;79;20958;-59
2022/08/23 10:01:32;;;;;;;26.13;12.03;;;;;;;31.05;100.00;98738.30;2226602;78;20995;-59
2022/08/23 10:04:33;;;;;;;26.40;13.08;;;;;;;31.27;100.00;98735.08;2245915;78;21005;-61
2022/08/23 10:07:33;;;;;;;26.63;12.00;;;;;;;31.24;100.00;98735.00;2242742;79;20993;-60
2022/08/23 10:10:34;;;;;;;26.65;12.00;;;;;;;30.89;100.00;98734.84;2245898;79;21508;-61
2022/08/23 10:13:35;;;;;;;24.80;11.97;;;;;;;31.13;100.00;98733.61;2241730;78;21017;-60
2022/08/23 10:16:35;;;;;;;26.12;12.73;;;;;;;31.09;100.00;98735.42;2245804;78;20966;-61
2022/08/23 10:19:37;;;;;;;27.70;12.93;;;;;;;31.35;100.00;98741.52;2241220;78;20958;-61
2022/08/23 10:22:37;;;;;;;26.25;11.80;;;;;;;31.55;100.00;98742.58;2242057;78;20977;-60
2022/08/23 10:25:37;;;;;;;25.97;12.27;;;;;;;31.61;100.00;98741.67;2244680;79;21464;-61
2022/08/23 10:31:40;;;;;;;25.57;12.60;;;;;;;31.92;100.00;98737.00;2220595;79;21002;-59
2022/08/23 10:34:41;;;;;;;26.43;13.67;;;;;;;31.72;100.00;98735.14;2225151;79;21517;-60
2022/08/23 10:37:42;;;;;;;27.73;13.68;;;;;;;31.15;100.00;98739.61;2242033;78;21081;-60
2022/08/23 10:40:43;;;;;;;28.25;14.58;;;;;;;30.95;100.00;98743.91;2232969;79;21000;-59
2022/08/23 10:43:44;;;;;;;29.52;15.80;;;;;;;30.84;100.00;98740.92;2239981;79;20991;-61
2022/08/23 10:46:45;;;;;;;26.12;15.13;;;;;;;30.66;100.00;98745.84;2240231;78;21664;-60
2022/08/23 10:49:45;;;;;;;26.37;14.18;;;;;;;30.73;100.00;98738.98;2238414;79;21132;-59
2022/08/23 10:52:47;;;;;;;28.00;14.13;;;;;;;30.63;100.00;98744.10;2239995;78;21085;-59
2022/08/23 10:58:51;;;;;;;27.07;13.15;;;;;;;30.88;100.00;98746.72;2198124;79;20171;-61
2022/08/23 11:01:53;;;;;;;27.13;13.18;;;;;;;31.12;100.00;98752.27;2223760;79;21516;-60
2022/08/23 11:04:54;;;;;;;25.10;11.75;;;;;;;31.51;100.00;98749.52;2228253;79;21075;-61
2022/08/23 11:07:54;;;;;;;25.97;11.77;;;;;;;32.15;100.00;98748.11;2244086;78;21037;-59
2022/08/23 11:10:55;;;;;;;27.35;12.55;;;;;;;32.15;100.00;98748.11;2218742;79;21368;-59
2022/08/23 11:13:56;;;;;;;27.45;13.25;;;;;;;32.31;100.00;98743.31;2236294;78;21571;-59
2022/08/23 11:16:58;;;;;;;27.10;13.45;;;;;;;32.36;100.00;98746.15;2243390;78;20985;-60
2022/08/23 11:19:58;;;;;;;25.35;14.23;;;;;;;32.52;100.00;98743.23;2236169;78;21121;-59
2022/08/23 11:23:00;;;;;;;26.00;12.37;;;;;;;32.49;100.00;98757.83;2226730;78;21448;-60
2022/08/23 11:26:00;;;;;;;27.32;13.72;;;;;;;32.65;100.00;98751.09;2238349;79;21120;-59
2022/08/23 11:29:01;;;;;;;25.50;13.78;;;;;;;32.72;100.00;98758.34;2233266;78;21029;-59
2022/08/23 11:32:01;;;;;;;29.05;14.20;;;;;;;33.29;100.00;98750.23;2243186;78;20982;-59
2022/08/23 11:35:04;;;;;;;;;;;;;;;33.29;100.00;98750.23;2247712;78;21045;-59
2022/08/23 11:38:05;;;;;;;28.62;14.98;;;;;;;33.34;100.00;98763.09;2243502;78;20146;-59
2022/08/23 11:41:05;;;;;;;26.85;15.00;;;;;;;33.49;100.00;98751.13;2241468;78;21461;-59
2022/08/23 11:44:06;;;;;;;27.17;14.95;;;;;;;33.55;100.00;98754.77;2233709;78;20985;-59
2022/08/23 11:47:06;;;;;;;26.60;14.15;;;;;;;33.63;100.00;98748.94;2241037;78;21013;-60
2022/08/23 11:50:07;;;;;;;;;;;;;;;33.64;100.00;98750.56;2237722;78;20989;-59
2022/08/23 11:53:09;;;;;;;25.50;13.90;;;;;;;33.05;100.00;98752.74;2241780;78;20129;-59
2022/08/23 11:56:10;;;;;;;;;;;;;;;32.75;100.00;98748.34;2245973;78;21001;-61
2022/08/23 11:59:10;;;;;;;27.87;14.57;;;;;;;32.74;100.00;98748.89;2239392;78;20106;-59
2022/08/23 12:02:11;;;;;;;;;;;;;;;32.49;100.00;98746.42;2246113;78;21083;-59
2022/08/23 12:05:12;;;;;;;26.23;13.80;;;;;;;32.36;100.00;98746.69;2239589;78;20194;-59
2022/08/23 12:08:16;;;;;;;27.10;13.48;;;;;;;32.12;100.00;98742.11;2243256;78;21493;-59
2022/08/23 12:11:15;;;;;;;26.68;14.20;;;;;;;32.42;100.00;98742.47;2203447;79;21474;-60
2022/08/23 12:14:16;;;;;;;26.95;13.62;;;;;;;32.04;100.00;98744.30;2241590;78;21042;-61
2022/08/23 12:17:17;;;;;;;27.02;13.60;;;;;;;32.30;100.00;98739.78;2242273;78;21033;-62
2022/08/23 12:20:18;;;;;;;24.47;12.13;;;;;;;32.74;100.00;98738.03;2239784;78;21001;-62
2022/08/23 12:23:19;;;;;;;22.70;12.65;;;;;;;33.18;100.00;98742.13;2237821;78;21480;-61
2022/08/23 12:26:19;;;;;;;23.90;11.88;;;;;;;33.48;100.00;98742.68;2245413;78;21025;-60
2022/08/23 12:29:20;;;;;;;22.93;11.63;;;;;;;33.26;100.00;98750.73;2247026;78;21009;-61
2022/08/23 12:32:21;;;;;;;24.12;12.10;;;;;;;32.76;100.00;98744.58;2246701;78;21044;-62
2022/08/23 12:35:21;;;;;;;24.32;12.07;;;;;;;32.68;100.00;98749.83;2234395;78;20990;-61
2022/08/23 12:38:22;;;;;;;;;;;;;;;32.36;100.00;98737.20;2228421;78;21496;-61
2022/08/23 12:41:23;;;;;;;26.53;11.50;;;;;;;32.17;100.00;98727.83;2234873;78;20097;-61
2022/08/23 12:44:23;;;;;;;23.70;11.85;;;;;;;32.08;100.00;98727.34;2241778;78;21013;-61
2022/08/23 12:47:24;;;;;;;26.25;12.00;;;;;;;31.88;100.00;98727.69;2243141;78;21001;-62
2022/08/23 12:50:24;;;;;;;31.80;11.00;;;;;;;32.09;100.00;98715.41;2241682;79;21496;-62
2022/08/23 12:53:25;;;;;;;23.87;11.60;;;;;;;32.41;100.00;98722.36;2241144;78;21616;-62
2022/08/23 12:56:26;;;;;;;26.62;11.35;;;;;;;31.73;100.00;98729.48;2239884;78;21125;-60
2022/08/23 12:59:26;;;;;;;23.90;10.75;;;;;;;31.39;100.00;98722.40;2225813;78;21057;-60
2022/08/23 13:02:27;;;;;;;24.50;11.22;;;;;;;31.47;100.00;98725.83;2241337;78;20973;-59
2022/08/23 13:05:27;;;;;;;23.10;11.78;;;;;;;31.59;100.00;98727.54;2239381;78;21020;-59
2022/08/23 13:08:28;;;;;;;22.42;11.53;;;;;;;31.88;100.00;98726.33;2243554;78;21549;-60
2022/08/23 13:11:28;;;;;;;22.52;11.25;;;;;;;31.90;100.00;98730.97;2239970;78;21495;-60
2022/08/23 13:14:29;;;;;;;21.73;10.43;;;;;;;32.46;100.00;98731.98;2244370;78;21045;-60
2022/08/23 13:17:30;;;;;;;22.95;11.28;;;;;;;32.52;100.00;98730.20;2241470;78;20993;-59
2022/08/23 13:23:39;;;;;;;22.65;11.03;;;;;;;31.95;100.00;98732.47;2183461;80;21166;-59
2022/08/23 13:26:40;;;;;;;23.20;11.18;;;;;;;32.26;100.00;98731.82;2190636;79;21925;-61
2022/08/23 13:32:50;;;;;;;22.05;9.78;;;;;;;32.58;100.00;98740.91;2249247;78;21091;-59
2022/08/23 13:35:51;;;;;;;21.70;9.95;;;;;;;32.52;100.00;98737.80;2220839;80;21007;-59
2022/08/23 13:38:52;;;;;;;21.62;9.38;;;;;;;32.72;100.00;98737.43;2206191;80;21596;-59
2022/08/23 13:41:52;;;;;;;;;;;;;;;33.37;100.00;98735.41;2248829;79;21114;-59
2022/08/23 13:44:53;;;;;;;10.87;2.70;;;;;;;32.88;100.00;98745.34;2238525;78;20134;-60
2022/08/23 13:47:54;;;;;;;;;;;;;;;31.73;100.00;98749.81;2240969;78;21030;-61
2022/08/23 13:50:54;;;;;;;12.30;3.30;;;;;;;30.34;100.00;98747.31;2241094;78;20443;-59
2022/08/23 13:53:55;;;;;;;15.65;3.17;;;;;;;29.61;100.00;98748.77;2247366;78;21075;-59
2022/08/23 13:56:56;;;;;;;14.68;3.37;;;;;;;29.49;100.00;98746.45;2239306;79;21070;-59
2022/08/23 13:59:57;;;;;;;13.08;2.90;;;;;;;29.23;100.00;98742.05;2244685;78;21027;-59
2022/08/23 14:02:58;;;;;;;12.63;3.33;;;;;;;28.94;100.00;98747.77;2242845;79;21131;-61
2022/08/23 14:05:59;;;;;;;16.73;3.33;;;;;;;28.78;100.00;98755.84;2257504;78;21000;-59
2022/08/23 14:09:00;;;;;;;13.60;3.60;;;;;;;28.44;100.00;98759.11;2254846;78;20984;-60
2022/08/23 14:12:00;;;;;;;13.97;3.70;;;;;;;28.15;100.00;98767.98;2257991;78;20956;-60